NCAR-RAP Real-Time Weather Data

Output produced by METARs form (23 June 2018  16:12 UTC)
found at http://weather.rap.ucar.edu/surface/
 
Conditions at: KAPF observed 23 June 2018  14:53 UTC
Temperature: 31.1°C (88°F)
Dewpoint: 25.0°C (77°F) [RH = 70%]
Pressure (altimeter): 30.04 inches Hg (1017.4 mb)
[Sea-level pressure: 1017.0 mb]
Winds: from the NW (310 degrees) at 8 MPH (7 knots; 3.6 m/s)
Visibility: 10 or more miles (16+ km)
Ceiling: at least 12,000 feet AGL
Clouds: scattered clouds at 2900 feet AGL
Present Weather: no significant weather observed at this time
KAPF 231453Z 31007KT 10SM SCT029 31/25 A3004 RMK AO2 LTG DSNT NE SLP170 SHRA NE MOV LTL T03110250 53010

Conditions at: KAPF observed 23 June 2018  13:53 UTC
Temperature: 31.1°C (88°F)
Dewpoint: 25.6°C (78°F) [RH = 73%]
Pressure (altimeter): 30.02 inches Hg (1016.7 mb)
[Sea-level pressure: 1016.4 mb]
Winds: from the WNW (290 degrees) at 9 MPH (8 knots; 4.2 m/s)
Visibility: 10 or more miles (16+ km)
Ceiling: at least 12,000 feet AGL
Clouds: few clouds at 2500 feet AGL
Present Weather: no significant weather observed at this time
KAPF 231353Z 29008KT 10SM FEW025 31/26 A3002 RMK AO2 SLP164 VCSH T03110256

Conditions at: KAPF observed 23 June 2018  12:53 UTC
Temperature: 29.4°C (85°F)
Dewpoint: 27.2°C (81°F) [RH = 88%]
Pressure (altimeter): 30.02 inches Hg (1016.7 mb)
[Sea-level pressure: 1016.3 mb]
Winds: calm
Visibility: 10 or more miles (16+ km)
Ceiling: at least 12,000 feet AGL
Clouds: scattered clouds at 2800 feet AGL
Present Weather:
SOME DATA ABOVE MAY BE INACCURATE!!!
"$" is an indication the sensor requires maintenance
KAPF 231253Z 00000KT 10SM SCT028 29/27 A3002 RMK AO2 SLP163 T02940272 $

Conditions at: KAPF observed 23 June 2018  11:53 UTC
Temperature: 27.8°C (82°F)
Dewpoint: 27.8°C (82°F) [RH = 100%]
Pressure (altimeter): 30.01 inches Hg (1016.3 mb)
[Sea-level pressure: 1016.0 mb]
Winds: from the ENE (70 degrees) at 3 MPH (3 knots; 1.6 m/s)
Visibility: 10 or more miles (16+ km)
Ceiling: at least 12,000 feet AGL
Clouds: few clouds at 2600 feet AGL
Present Weather:
SOME DATA ABOVE MAY BE INACCURATE!!!
"$" is an indication the sensor requires maintenance
KAPF 231153Z 07003KT 10SM FEW026 28/28 A3001 RMK AO2 SLP160 60024 70024 T02780278 10294 20261 51010 $

Conditions at: KAPF observed 23 June 2018  10:53 UTC
Temperature: 26.1°C (79°F)
Dewpoint: missing
Pressure (altimeter): 30.00 inches Hg (1016.0 mb)
[Sea-level pressure: 1015.7 mb]
Winds: calm
Visibility: 10 or more miles (16+ km)
Ceiling: at least 12,000 feet AGL
Clouds: sky clear below 12,000 feet AGL
Present Weather:
SOME DATA ABOVE MAY BE INACCURATE!!!
"$" is an indication the sensor requires maintenance
KAPF 231053Z 00000KT 10SM CLR 26/ A3000 RMK AO2 RAE24 SLP157 P0015 T0261 $

Conditions at: KAPF observed 23 June 2018  10:13 UTC
Temperature: 27.2°C (81°F)
Dewpoint: 26.7°C (80°F) [RH = 97%]
Pressure (altimeter): 29.99 inches Hg (1015.7 mb)
Winds: from the SSE (160 degrees) at 5 MPH (4 knots; 2.1 m/s)
Visibility: 3 miles (5 km)
Ceiling: 4100 feet AGL
Clouds: broken clouds at 4100 feet AGL
overcast cloud deck at 9000 feet AGL
Present Weather: -RA BR  (light rain, mist)
SOME DATA ABOVE MAY BE INACCURATE!!!
"$" is an indication the sensor requires maintenance
KAPF 231013Z 16004KT 3SM -RA BR BKN041 OVC090 27/27 A2999 RMK AO2 P0015 T02720267 $

Conditions at: KAPF observed 23 June 2018  10:09 UTC
Temperature: 27.2°C (81°F)
Dewpoint: 26.7°C (80°F) [RH = 97%]
Pressure (altimeter): 29.99 inches Hg (1015.7 mb)
Winds: from the SSE (160 degrees) at 5 MPH (4 knots; 2.1 m/s)
Visibility: 1.75 miles (2.82 km)
Ceiling: 3900 feet AGL
Clouds: few clouds at 3100 feet AGL
broken clouds at 3900 feet AGL
overcast cloud deck at 9000 feet AGL
Present Weather: RA BR  (rain, mist)
SOME DATA ABOVE MAY BE INACCURATE!!!
"$" is an indication the sensor requires maintenance
KAPF 231009Z 16004KT 1 3/4SM RA BR FEW031 BKN039 OVC090 27/27 A2999 RMK AO2 P0015 T02720267 $

Conditions at: KAPF observed 23 June 2018  09:53 UTC
Temperature: 27.2°C (81°F)
Dewpoint: 26.7°C (80°F) [RH = 97%]
Pressure (altimeter): 29.99 inches Hg (1015.7 mb)
[Sea-level pressure: 1015.5 mb]
Winds: from the S (190 degrees) at 7 MPH (6 knots; 3.1 m/s)
Visibility: 2.50 miles (4.02 km)
Ceiling: 4900 feet AGL
Clouds: scattered clouds at 2900 feet AGL
broken clouds at 4900 feet AGL
overcast cloud deck at 9000 feet AGL
Present Weather: RA BR  (rain, mist)
KAPF 230953Z 19006KT 2 1/2SM RA BR SCT029 BKN049 OVC090 27/27 A2999 RMK AO2 LTG DSNT SE RAB41 SLP155 P0009 T02720267

Conditions at: KAPF observed 23 June 2018  09:48 UTC
Temperature: 27.0°C (81°F)
Dewpoint: 27.0°C (81°F) [RH = 100%]
Pressure (altimeter): 29.99 inches Hg (1015.7 mb)
Winds: from the S (190 degrees) at 12 MPH (10 knots; 5.2 m/s)
gusting to 25 MPH (22 knots; 11.4 m/s)
Visibility: 2.50 miles (4.02 km)
Ceiling: 3400 feet AGL
Clouds: scattered clouds at 2900 feet AGL
broken clouds at 3400 feet AGL
broken clouds at 4200 feet AGL
Present Weather: +RA BR  (heavy rain, mist)
KAPF 230948Z 19010G22KT 2 1/2SM +RA BR SCT029 BKN034 BKN042 27/27 A2999 RMK AO2 LTG DSNT SE RAB41 P0007

Conditions at: KAPF observed 23 June 2018  09:26 UTC
Temperature: 28.3°C (83°F)
Dewpoint: 25.0°C (77°F) [RH = 82%]
Pressure (altimeter): 29.98 inches Hg (1015.3 mb)
Winds: from the SW (220 degrees) at 12 MPH (10 knots; 5.2 m/s)
Visibility: 10 or more miles (16+ km)
Ceiling: 2900 feet AGL
Clouds: broken clouds at 2900 feet AGL
Present Weather: automated observation with no human augmentation;
there may or may not be significant weather present at this time
KAPF 230926Z AUTO 22010KT 10SM BKN029 28/25 A2998 RMK AO2 T02830250

Conditions at: KAPF observed 23 June 2018  08:53 UTC
Temperature: 28.9°C (84°F)
Dewpoint: 25.0°C (77°F) [RH = 80%]
Pressure (altimeter): 29.97 inches Hg (1015.0 mb)
[Sea-level pressure: 1014.9 mb]
Winds: from the W (280 degrees) at 3 MPH (3 knots; 1.6 m/s)
Visibility: 10 or more miles (16+ km)
Ceiling: at least 12,000 feet AGL
Clouds: few clouds at 3000 feet AGL
Present Weather: automated observation with no human augmentation;
there may or may not be significant weather present at this time
KAPF 230853Z AUTO 28003KT 10SM FEW030 29/25 A2997 RMK AO2 SLP149 T02890250 56009

Conditions at: KAPF observed 23 June 2018  07:53 UTC
Temperature: 29.4°C (85°F)
Dewpoint: 25.0°C (77°F) [RH = 77%]
Pressure (altimeter): 29.98 inches Hg (1015.3 mb)
[Sea-level pressure: 1015.1 mb]
Winds: from the W (260 degrees) at 5 MPH (4 knots; 2.1 m/s)
Visibility: 10 or more miles (16+ km)
Ceiling: at least 12,000 feet AGL
Clouds: scattered clouds at 3000 feet AGL
Present Weather: automated observation with no human augmentation;
there may or may not be significant weather present at this time
KAPF 230753Z AUTO 26004KT 10SM SCT030 29/25 A2998 RMK AO2 SLP151 T02940250

Conditions at: KAPF observed 23 June 2018  06:53 UTC
Temperature: 29.4°C (85°F)
Dewpoint: 25.6°C (78°F) [RH = 80%]
Pressure (altimeter): 29.99 inches Hg (1015.7 mb)
[Sea-level pressure: 1015.4 mb]
Winds: from the W (280 degrees) at 3 MPH (3 knots; 1.6 m/s)
Visibility: 10 or more miles (16+ km)
Ceiling: at least 12,000 feet AGL
Clouds: few clouds at 2600 feet AGL
Present Weather: automated observation with no human augmentation;
there may or may not be significant weather present at this time
KAPF 230653Z AUTO 28003KT 10SM FEW026 29/26 A2999 RMK AO2 SLP154 T02940256

Conditions at: KAPF observed 23 June 2018  05:53 UTC
Temperature: 29.4°C (85°F)
Dewpoint: 26.1°C (79°F) [RH = 82%]
Pressure (altimeter): 30.00 inches Hg (1016.0 mb)
[Sea-level pressure: 1015.8 mb]
Winds: from the W (270 degrees) at 3 MPH (3 knots; 1.6 m/s)
Visibility: 10 or more miles (16+ km)
Ceiling: at least 12,000 feet AGL
Clouds: sky clear below 12,000 feet AGL
Present Weather: automated observation with no human augmentation;
there may or may not be significant weather present at this time
KAPF 230553Z AUTO 27003KT 10SM CLR 29/26 A3000 RMK AO2 SLP158 T02940261 10306 20294 50000

Conditions at: KAPF observed 23 June 2018  04:53 UTC
Temperature: 30.0°C (86°F)
Dewpoint: 25.6°C (78°F) [RH = 77%]
Pressure (altimeter): 30.01 inches Hg (1016.3 mb)
[Sea-level pressure: 1016.0 mb]
Winds: calm
Visibility: 10 or more miles (16+ km)
Ceiling: at least 12,000 feet AGL
Clouds: sky clear below 12,000 feet AGL
Present Weather: automated observation with no human augmentation;
there may or may not be significant weather present at this time
KAPF 230453Z AUTO 00000KT 10SM CLR 30/26 A3001 RMK AO2 SLP160 T03000256 403330272

Conditions at: KAPF observed 23 June 2018  03:53 UTC
Temperature: 30.0°C (86°F)
Dewpoint: 26.1°C (79°F) [RH = 80%]
Pressure (altimeter): 30.01 inches Hg (1016.3 mb)
[Sea-level pressure: 1016.0 mb]
Winds: from the W (280 degrees) at 3 MPH (3 knots; 1.6 m/s)
Visibility: 10 or more miles (16+ km)
Ceiling: at least 12,000 feet AGL
Clouds: few clouds at 3200 feet AGL
Present Weather: automated observation with no human augmentation;
there may or may not be significant weather present at this time
KAPF 230353Z AUTO 28003KT 10SM FEW032 30/26 A3001 RMK AO2 SLP160 T03000261

Conditions at: KAPF observed 23 June 2018  02:53 UTC
Temperature: 30.0°C (86°F)
Dewpoint: 26.1°C (79°F) [RH = 80%]
Pressure (altimeter): 30.00 inches Hg (1016.0 mb)
[Sea-level pressure: 1015.7 mb]
Winds: from the WNW (290 degrees) at 5 MPH (4 knots; 2.1 m/s)
Visibility: 10 or more miles (16+ km)
Ceiling: at least 12,000 feet AGL
Clouds: sky clear below 12,000 feet AGL
Present Weather: automated observation with no human augmentation;
there may or may not be significant weather present at this time
KAPF 230253Z AUTO 29004KT 10SM CLR 30/26 A3000 RMK AO2 SLP157 T03000261 51012

Conditions at: KAPF observed 23 June 2018  01:53 UTC
Temperature: 30.0°C (86°F)
Dewpoint: 25.6°C (78°F) [RH = 77%]
Pressure (altimeter): 30.00 inches Hg (1016.0 mb)
[Sea-level pressure: 1015.6 mb]
Winds: from the W (280 degrees) at 6 MPH (5 knots; 2.6 m/s)
Visibility: 10 or more miles (16+ km)
Ceiling: at least 12,000 feet AGL
Clouds: sky clear below 12,000 feet AGL
Present Weather: automated observation with no human augmentation;
there may or may not be significant weather present at this time
KAPF 230153Z AUTO 28005KT 10SM CLR 30/26 A3000 RMK AO2 SLP156 T03000256

Conditions at: KAPF observed 23 June 2018  00:53 UTC
Temperature: 30.0°C (86°F)
Dewpoint: 25.6°C (78°F) [RH = 77%]
Pressure (altimeter): 29.98 inches Hg (1015.3 mb)
[Sea-level pressure: 1015.1 mb]
Winds: from the WNW (290 degrees) at 9 MPH (8 knots; 4.2 m/s)
Visibility: 10 or more miles (16+ km)
Ceiling: at least 12,000 feet AGL
Clouds: sky clear below 12,000 feet AGL
Present Weather: no significant weather observed at this time
KAPF 230053Z 29008KT 10SM CLR 30/26 A2998 RMK AO2 SLP151 T03000256

Conditions at: KAPF observed 22 June 2018  23:53 UTC
Temperature: 30.6°C (87°F)
Dewpoint: 25.6°C (78°F) [RH = 75%]
Pressure (altimeter): 29.96 inches Hg (1014.6 mb)
[Sea-level pressure: 1014.6 mb]
Winds: from the WNW (290 degrees) at 7 MPH (6 knots; 3.1 m/s)
Visibility: 10 or more miles (16+ km)
Ceiling: at least 12,000 feet AGL
Clouds: sky clear below 12,000 feet AGL
Present Weather: no significant weather observed at this time
KAPF 222353Z 29006KT 10SM CLR 31/26 A2996 RMK AO2 SLP146 T03060256 10333 20306 53004

Conditions at: KAPF observed 22 June 2018  22:53 UTC
Temperature: 31.7°C (89°F)
Dewpoint: 25.0°C (77°F) [RH = 68%]
Pressure (altimeter): 29.95 inches Hg (1014.3 mb)
[Sea-level pressure: 1014.1 mb]
Winds: from the WNW (290 degrees) at 13 MPH (11 knots; 5.7 m/s)
Visibility: 10 or more miles (16+ km)
Ceiling: at least 12,000 feet AGL
Clouds: few clouds at 2800 feet AGL
Present Weather: no significant weather observed at this time
KAPF 222253Z 29011KT 10SM FEW028 32/25 A2995 RMK AO2 SLP141 T03170250

Conditions at: KAPF observed 22 June 2018  21:53 UTC
Temperature: 31.7°C (89°F)
Dewpoint: 25.6°C (78°F) [RH = 70%]
Pressure (altimeter): 29.96 inches Hg (1014.6 mb)
[Sea-level pressure: 1014.3 mb]
Winds: from the W (270 degrees) at 12 MPH (10 knots; 5.2 m/s)
Visibility: 10 or more miles (16+ km)
Ceiling: at least 12,000 feet AGL
Clouds: few clouds at 3000 feet AGL
Present Weather: no significant weather observed at this time
KAPF 222153Z 27010KT 10SM FEW030 32/26 A2996 RMK AO2 SLP143 T03170256

Conditions at: KAPF observed 22 June 2018  20:53 UTC
Temperature: 32.8°C (91°F)
Dewpoint: 25.6°C (78°F) [RH = 66%]
Pressure (altimeter): 29.95 inches Hg (1014.3 mb)
[Sea-level pressure: 1014.2 mb]
Winds: from the W (260 degrees) at 14 MPH (12 knots; 6.2 m/s)
Visibility: 10 or more miles (16+ km)
Ceiling: at least 12,000 feet AGL
Clouds: few clouds at 2700 feet AGL
Present Weather: no significant weather observed at this time
KAPF 222053Z 26012KT 10SM FEW027 33/26 A2995 RMK AO2 SLP142 T03280256 58016

Conditions at: KAPF observed 22 June 2018  19:53 UTC
Temperature: 32.2°C (90°F)
Dewpoint: 25.6°C (78°F) [RH = 68%]
Pressure (altimeter): 29.97 inches Hg (1015.0 mb)
[Sea-level pressure: 1014.8 mb]
Winds: from the W (260 degrees) at 14 MPH (12 knots; 6.2 m/s)
Visibility: 10 or more miles (16+ km)
Ceiling: at least 12,000 feet AGL
Clouds: sky clear below 12,000 feet AGL
Present Weather: no significant weather observed at this time
KAPF 221953Z 26012KT 10SM CLR 32/26 A2997 RMK AO2 SLP148 T03220256

Conditions at: KAPF observed 22 June 2018  18:53 UTC
Temperature: 32.2°C (90°F)
Dewpoint: 25.6°C (78°F) [RH = 68%]
Pressure (altimeter): 29.99 inches Hg (1015.7 mb)
[Sea-level pressure: 1015.4 mb]
Winds: from the W (270 degrees) at 12 MPH (10 knots; 5.2 m/s)
Visibility: 10 or more miles (16+ km)
Ceiling: at least 12,000 feet AGL
Clouds: scattered clouds at 3000 feet AGL
Present Weather: no significant weather observed at this time
KAPF 221853Z 27010KT 10SM SCT030 32/26 A2999 RMK AO2 SLP154 T03220256

Conditions at: KAPF observed 22 June 2018  17:53 UTC
Temperature: 32.8°C (91°F)
Dewpoint: 25.6°C (78°F) [RH = 66%]
Pressure (altimeter): 30.00 inches Hg (1016.0 mb)
[Sea-level pressure: 1015.8 mb]
Winds: from the WNW (290 degrees) at 12 MPH (10 knots; 5.2 m/s)
Visibility: 10 or more miles (16+ km)
Ceiling: at least 12,000 feet AGL
Clouds: sky clear below 12,000 feet AGL
Present Weather: no significant weather observed at this time
KAPF 221753Z 29010KT 10SM CLR 33/26 A3000 RMK AO2 SLP158 T03280256 10328 20278 58006

Conditions at: KAPF observed 22 June 2018  16:53 UTC
Temperature: 32.2°C (90°F)
Dewpoint: 25.6°C (78°F) [RH = 68%]
Pressure (altimeter): 30.02 inches Hg (1016.7 mb)
[Sea-level pressure: 1016.3 mb]
Winds: from the W (260 degrees) at 10 MPH (9 knots; 4.7 m/s)
Visibility: 10 or more miles (16+ km)
Ceiling: at least 12,000 feet AGL
Clouds: few clouds at 2800 feet AGL
Present Weather: no significant weather observed at this time
KAPF 221653Z 26009KT 10SM FEW028 32/26 A3002 RMK AO2 SLP163 T03220256

Conditions at: KAPF observed 22 June 2018  15:53 UTC
Temperature: 31.1°C (88°F)
Dewpoint: 25.0°C (77°F) [RH = 70%]
Pressure (altimeter): 30.02 inches Hg (1016.7 mb)
[Sea-level pressure: 1016.3 mb]
Winds: from the W (280 degrees) at 8 MPH (7 knots; 3.6 m/s)
Visibility: 10 or more miles (16+ km)
Ceiling: at least 12,000 feet AGL
Clouds: few clouds at 2500 feet AGL
Present Weather: no significant weather observed at this time
KAPF 221553Z 28007KT 10SM FEW025 31/25 A3002 RMK AO2 SLP163 T03110250

Conditions at: KAPF observed 22 June 2018  14:53 UTC
Temperature: 30.0°C (86°F)
Dewpoint: 24.4°C (76°F) [RH = 72%]
Pressure (altimeter): 30.02 inches Hg (1016.7 mb)
[Sea-level pressure: 1016.4 mb]
Winds: from the W (260 degrees) at 7 MPH (6 knots; 3.1 m/s)
Visibility: 10 or more miles (16+ km)
Ceiling: at least 12,000 feet AGL
Clouds: few clouds at 2500 feet AGL
Present Weather: no significant weather observed at this time
KAPF 221453Z 26006KT 10SM FEW025 30/24 A3002 RMK AO2 LTG DSNT SE SLP164 T03000244 51013

Conditions at: KAPF observed 22 June 2018  13:53 UTC
Temperature: 31.7°C (89°F)
Dewpoint: 25.0°C (77°F) [RH = 68%]
Pressure (altimeter): 30.01 inches Hg (1016.3 mb)
[Sea-level pressure: 1016.1 mb]
Winds: from the W (270 degrees) at 8 MPH (7 knots; 3.6 m/s)
Visibility: 10 or more miles (16+ km)
Ceiling: at least 12,000 feet AGL
Clouds: few clouds at 2800 feet AGL
Present Weather: no significant weather observed at this time
KAPF 221353Z 27007KT 10SM FEW028 32/25 A3001 RMK AO2 LTG DSNT NE AND E SLP161 T03170250

Conditions at: KAPF observed 22 June 2018  12:53 UTC
Temperature: 28.3°C (83°F)
Dewpoint: 24.4°C (76°F) [RH = 79%]
Pressure (altimeter): 30.01 inches Hg (1016.3 mb)
[Sea-level pressure: 1016.0 mb]
Winds: from the S (190 degrees) at 6 MPH (5 knots; 2.6 m/s)
Visibility: 10 or more miles (16+ km)
Ceiling: 3700 feet AGL
Clouds: scattered clouds at 2700 feet AGL
broken clouds at 3700 feet AGL
Present Weather: no significant weather observed at this time
KAPF 221253Z 19005KT 10SM SCT027 BKN037 28/24 A3001 RMK AO2 TSB13E49 SLP160 T02830244

Conditions at: KAPF observed 22 June 2018  12:29 UTC
Temperature: 27.8°C (82°F)
Dewpoint: 24.4°C (76°F) [RH = 82%]
Pressure (altimeter): 30.01 inches Hg (1016.3 mb)
Winds: from the S (180 degrees) at 12 MPH (10 knots; 5.2 m/s)
Visibility: 10 or more miles (16+ km)
Ceiling: 2700 feet AGL
Clouds: broken clouds at 2700 feet AGL
broken clouds at 4000 feet AGL
Present Weather: TS  (thunderstorm)
KAPF 221229Z 18010KT 10SM TS BKN027 BKN040 28/24 A3001 RMK AO2 LTG DSNT W TSB13 T02780244

Conditions at: KAPF observed 22 June 2018  12:19 UTC
Temperature: 30.0°C (86°F)
Dewpoint: 25.6°C (78°F) [RH = 77%]
Pressure (altimeter): 30.00 inches Hg (1016.0 mb)
Winds: from the SW (230 degrees) at 9 MPH (8 knots; 4.2 m/s)
Visibility: 10 or more miles (16+ km)
Ceiling: 4000 feet AGL
Clouds: scattered clouds at 2700 feet AGL
broken clouds at 4000 feet AGL
Present Weather: TS  (thunderstorm)
KAPF 221219Z 23008KT 210V280 10SM TS SCT027 BKN040 30/26 A3000 RMK AO2 TSB13 T03000256

Conditions at: KAPF observed 22 June 2018  11:53 UTC
Temperature: 30.0°C (86°F)
Dewpoint: 25.0°C (77°F) [RH = 75%]
Pressure (altimeter): 29.98 inches Hg (1015.3 mb)
[Sea-level pressure: 1015.2 mb]
Winds: from the W (280 degrees) at 5 MPH (4 knots; 2.1 m/s)
Visibility: 10 or more miles (16+ km)
Ceiling: at least 12,000 feet AGL
Clouds: sky clear below 12,000 feet AGL
Present Weather: no significant weather observed at this time
KAPF 221153Z 28004KT 10SM CLR 30/25 A2998 RMK AO2 SLP152 T03000250 10300 20272 53017

Conditions at: KAPF observed 22 June 2018  10:53 UTC
Temperature: 29.4°C (85°F)
Dewpoint: 25.6°C (78°F) [RH = 80%]
Pressure (altimeter): 29.97 inches Hg (1015.0 mb)
[Sea-level pressure: 1014.7 mb]
Winds: from the WSW (250 degrees) at 6 MPH (5 knots; 2.6 m/s)
Visibility: 10 or more miles (16+ km)
Ceiling: at least 12,000 feet AGL
Clouds: few clouds at 2500 feet AGL
Present Weather: no significant weather observed at this time
KAPF 221053Z 25005KT 10SM FEW025 29/26 A2997 RMK AO2 SLP147 T02940256

Conditions at: KAPF observed 22 June 2018  09:53 UTC
Temperature: 28.9°C (84°F)
Dewpoint: 25.6°C (78°F) [RH = 82%]
Pressure (altimeter): 29.94 inches Hg (1014.0 mb)
[Sea-level pressure: 1013.8 mb]
Winds: from the SW (230 degrees) at 5 MPH (4 knots; 2.1 m/s)
Visibility: 10 or more miles (16+ km)
Ceiling: at least 12,000 feet AGL
Clouds: few clouds at 2500 feet AGL
Present Weather: no significant weather observed at this time
KAPF 220953Z 23004KT 10SM FEW025 29/26 A2994 RMK AO2 SLP138 T02890256

Conditions at: KAPF observed 22 June 2018  08:53 UTC
Temperature: 27.8°C (82°F)
Dewpoint: 26.7°C (80°F) [RH = 94%]
Pressure (altimeter): 29.93 inches Hg (1013.6 mb)
[Sea-level pressure: 1013.5 mb]
Winds: from the SE (130 degrees) at 3 MPH (3 knots; 1.6 m/s)
Visibility: 10 or more miles (16+ km)
Ceiling: at least 12,000 feet AGL
Clouds: sky clear below 12,000 feet AGL
Present Weather: automated observation with no human augmentation;
there may or may not be significant weather present at this time
KAPF 220853Z AUTO 13003KT 10SM CLR 28/27 A2993 RMK AO2 SLP135 T02780267 56013

Conditions at: KAPF observed 22 June 2018  07:53 UTC
Temperature: 28.9°C (84°F)
Dewpoint: 26.1°C (79°F) [RH = 85%]
Pressure (altimeter): 29.94 inches Hg (1014.0 mb)
[Sea-level pressure: 1013.7 mb]
Winds: calm
Visibility: 10 or more miles (16+ km)
Ceiling: at least 12,000 feet AGL
Clouds: few clouds at 2400 feet AGL
Present Weather: automated observation with no human augmentation;
there may or may not be significant weather present at this time
KAPF 220753Z AUTO 00000KT 10SM FEW024 29/26 A2994 RMK AO2 SLP137 T02890261

Conditions at: KAPF observed 22 June 2018  06:53 UTC
Temperature: 29.4°C (85°F)
Dewpoint: 25.6°C (78°F) [RH = 80%]
Pressure (altimeter): 29.95 inches Hg (1014.3 mb)
[Sea-level pressure: 1014.2 mb]
Winds: from the W (280 degrees) at 6 MPH (5 knots; 2.6 m/s)
Visibility: 10 or more miles (16+ km)
Ceiling: at least 12,000 feet AGL
Clouds: few clouds at 2700 feet AGL
scattered clouds at 3600 feet AGL
Present Weather: automated observation with no human augmentation;
there may or may not be significant weather present at this time
KAPF 220653Z AUTO 28005KT 10SM FEW027 SCT036 29/26 A2995 RMK AO2 SLP142 T02940256

Conditions at: KAPF observed 22 June 2018  05:53 UTC
Temperature: 27.2°C (81°F)
Dewpoint: 26.7°C (80°F) [RH = 97%]
Pressure (altimeter): 29.97 inches Hg (1015.0 mb)
[Sea-level pressure: 1014.8 mb]
Winds: from the SW (220 degrees) at 3 MPH (3 knots; 1.6 m/s)
Visibility: 10 or more miles (16+ km)
Ceiling: at least 12,000 feet AGL
Clouds: few clouds at 2100 feet AGL
Present Weather: automated observation with no human augmentation;
there may or may not be significant weather present at this time
KAPF 220553Z AUTO 22003KT 10SM FEW021 27/27 A2997 RMK AO2 LTG DSNT NW RAB07E21 TSB0455E00E34 SLP148 P0000 60000 T02720267 10306 20272 58001

Conditions at: KAPF observed 22 June 2018  05:40 UTC
Temperature: 27.2°C (81°F)
Dewpoint: 26.1°C (79°F) [RH = 94%]
Pressure (altimeter): 29.97 inches Hg (1015.0 mb)
Winds: from the SSE (160 degrees) at 5 MPH (4 knots; 2.1 m/s)
Visibility: 10 or more miles (16+ km)
Ceiling: at least 12,000 feet AGL
Clouds: few clouds at 2300 feet AGL
scattered clouds at 7000 feet AGL
scattered clouds at 9500 feet AGL
Present Weather: automated observation with no human augmentation;
there may or may not be significant weather present at this time
KAPF 220540Z AUTO 16004KT 10SM FEW023 SCT070 SCT095 27/26 A2997 RMK AO2 LTG DSNT NW RAB07E21 TSB0455E00E34 P0000 T02720261

Conditions at: KAPF observed 22 June 2018  05:29 UTC
Temperature: 28.3°C (83°F)
Dewpoint: 26.1°C (79°F) [RH = 88%]
Pressure (altimeter): 29.98 inches Hg (1015.3 mb)
Winds: calm
Visibility: 10 or more miles (16+ km)
Ceiling: 4100 feet AGL
Clouds: scattered clouds at 2500 feet AGL
broken clouds at 4100 feet AGL
broken clouds at 6000 feet AGL
Present Weather: TS  (thunderstorm)
KAPF 220529Z AUTO 00000KT 10SM TS SCT025 BKN041 BKN060 28/26 A2998 RMK AO2 LTG DSNT NW RAB07E21 TSB0455E00 P0000 T02830261

Conditions at: KAPF observed 22 June 2018  05:01 UTC
Temperature: 30.0°C (86°F)
Dewpoint: 26.1°C (79°F) [RH = 80%]
Pressure (altimeter): 29.99 inches Hg (1015.7 mb)
Winds: from the WSW (240 degrees) at 5 MPH (4 knots; 2.1 m/s)
Visibility: 10 or more miles (16+ km)
Ceiling: 2300 feet AGL
Clouds: overcast cloud deck at 2300 feet AGL
Present Weather: TS  (thunderstorm)
KAPF 220501Z AUTO 24004KT 10SM TS OVC023 30/26 A2999 RMK AO2 TSB0455E00 T03000261

Conditions at: KAPF observed 22 June 2018  04:53 UTC
Temperature: 29.4°C (85°F)
Dewpoint: 26.1°C (79°F) [RH = 82%]
Pressure (altimeter): 29.98 inches Hg (1015.3 mb)
[Sea-level pressure: 1015.2 mb]
Winds: variable direction winds at 3 MPH (3 knots; 1.6 m/s)
Visibility: 10 or more miles (16+ km)
Ceiling: 2300 feet AGL
Clouds: broken clouds at 2300 feet AGL
Present Weather: VCTS  (thunderstorm in vicinity)
KAPF 220453Z AUTO VRB03KT 10SM VCTS BKN023 29/26 A2998 RMK AO2 SLP152 T02940261 403330272

Conditions at: KAPF observed 22 June 2018  04:42 UTC
Temperature: 30.0°C (86°F)
Dewpoint: 26.1°C (79°F) [RH = 80%]
Pressure (altimeter): 29.98 inches Hg (1015.3 mb)
Winds: from the W (270 degrees) at 9 MPH (8 knots; 4.2 m/s)
Visibility: 10 or more miles (16+ km)
Ceiling: 2300 feet AGL
Clouds: broken clouds at 2300 feet AGL
broken clouds at 3100 feet AGL
broken clouds at 4200 feet AGL
Present Weather: automated observation with no human augmentation;
there may or may not be significant weather present at this time
KAPF 220442Z AUTO 27008KT 10SM BKN023 BKN031 BKN042 30/26 A2998 RMK AO2 T03000261

Conditions at: KAPF observed 22 June 2018  03:53 UTC
Temperature: 30.0°C (86°F)
Dewpoint: 25.6°C (78°F) [RH = 77%]
Pressure (altimeter): 29.98 inches Hg (1015.3 mb)
[Sea-level pressure: 1015.2 mb]
Winds: from the W (280 degrees) at 6 MPH (5 knots; 2.6 m/s)
Visibility: 10 or more miles (16+ km)
Ceiling: at least 12,000 feet AGL
Clouds: sky clear below 12,000 feet AGL
Present Weather: automated observation with no human augmentation;
there may or may not be significant weather present at this time
KAPF 220353Z AUTO 28005KT 10SM CLR 30/26 A2998 RMK AO2 SLP152 T03000256

Conditions at: KAPF observed 22 June 2018  02:53 UTC
Temperature: 30.0°C (86°F)
Dewpoint: 25.6°C (78°F) [RH = 77%]
Pressure (altimeter): 29.97 inches Hg (1015.0 mb)
[Sea-level pressure: 1014.9 mb]
Winds: from the W (270 degrees) at 6 MPH (5 knots; 2.6 m/s)
Visibility: 10 or more miles (16+ km)
Ceiling: at least 12,000 feet AGL
Clouds: few clouds at 2600 feet AGL
Present Weather: automated observation with no human augmentation;
there may or may not be significant weather present at this time
KAPF 220253Z AUTO 27005KT 10SM FEW026 30/26 A2997 RMK AO2 SLP149 T03000256 53008

Conditions at: KAPF observed 22 June 2018  01:53 UTC
Temperature: 30.0°C (86°F)
Dewpoint: 25.6°C (78°F) [RH = 77%]
Pressure (altimeter): 29.97 inches Hg (1015.0 mb)
[Sea-level pressure: 1014.6 mb]
Winds: from the W (280 degrees) at 6 MPH (5 knots; 2.6 m/s)
Visibility: 10 or more miles (16+ km)
Ceiling: at least 12,000 feet AGL
Clouds: sky clear below 12,000 feet AGL
Present Weather: automated observation with no human augmentation;
there may or may not be significant weather present at this time
KAPF 220153Z AUTO 28005KT 10SM CLR 30/26 A2997 RMK AO2 SLP146 T03000256

Conditions at: KAPF observed 22 June 2018  00:53 UTC
Temperature: 30.0°C (86°F)
Dewpoint: 25.0°C (77°F) [RH = 75%]
Pressure (altimeter): 29.96 inches Hg (1014.6 mb)
[Sea-level pressure: 1014.3 mb]
Winds: from the W (280 degrees) at 7 MPH (6 knots; 3.1 m/s)
Visibility: 10 or more miles (16+ km)
Ceiling: at least 12,000 feet AGL
Clouds: few clouds at 2700 feet AGL
Present Weather: no significant weather observed at this time
KAPF 220053Z 28006KT 10SM FEW027 30/25 A2996 RMK AO2 SLP143 T03000250

Conditions at: KAPF observed 21 June 2018  23:53 UTC
Temperature: 30.6°C (87°F)
Dewpoint: 24.4°C (76°F) [RH = 70%]
Pressure (altimeter): 29.95 inches Hg (1014.3 mb)
[Sea-level pressure: 1014.1 mb]
Winds: from the WNW (290 degrees) at 8 MPH (7 knots; 3.6 m/s)
Visibility: 10 or more miles (16+ km)
Ceiling: at least 12,000 feet AGL
Clouds: sky clear below 12,000 feet AGL
Present Weather: no significant weather observed at this time
KAPF 212353Z 29007KT 10SM CLR 31/24 A2995 RMK AO2 SLP141 T03060244 10333 20306 53007

Conditions at: KAPF observed 21 June 2018  22:53 UTC
Temperature: 30.6°C (87°F)
Dewpoint: 24.4°C (76°F) [RH = 70%]
Pressure (altimeter): 29.93 inches Hg (1013.6 mb)
[Sea-level pressure: 1013.5 mb]
Winds: from the WNW (290 degrees) at 8 MPH (7 knots; 3.6 m/s)
Visibility: 10 or more miles (16+ km)
Ceiling: at least 12,000 feet AGL
Clouds: scattered clouds at 2800 feet AGL
Present Weather: no significant weather observed at this time
KAPF 212253Z 29007KT 10SM SCT028 31/24 A2993 RMK AO2 SLP135 T03060244

Conditions at: KAPF observed 21 June 2018  21:53 UTC
Temperature: 31.1°C (88°F)
Dewpoint: 25.0°C (77°F) [RH = 70%]
Pressure (altimeter): 29.92 inches Hg (1013.3 mb)
[Sea-level pressure: 1012.9 mb]
Winds: from the W (280 degrees) at 9 MPH (8 knots; 4.2 m/s)
Visibility: 10 or more miles (16+ km)
Ceiling: at least 12,000 feet AGL
Clouds: few clouds at 2700 feet AGL
Present Weather: no significant weather observed at this time
KAPF 212153Z 28008KT 10SM FEW027 31/25 A2992 RMK AO2 SLP129 T03110250

Conditions at: KAPF observed 21 June 2018  20:53 UTC
Temperature: 31.1°C (88°F)
Dewpoint: 25.0°C (77°F) [RH = 70%]
Pressure (altimeter): 29.93 inches Hg (1013.6 mb)
[Sea-level pressure: 1013.4 mb]
Winds: from the W (280 degrees) at 9 MPH (8 knots; 4.2 m/s)
Visibility: 10 or more miles (16+ km)
Ceiling: at least 12,000 feet AGL
Clouds: sky clear below 12,000 feet AGL
Present Weather: no significant weather observed at this time
KAPF 212053Z 28008KT 10SM CLR 31/25 A2993 RMK AO2 SLP134 T03110250 56010

Conditions at: KAPF observed 21 June 2018  19:53 UTC
Temperature: 31.1°C (88°F)
Dewpoint: 25.0°C (77°F) [RH = 70%]
Pressure (altimeter): 29.94 inches Hg (1014.0 mb)
[Sea-level pressure: 1013.8 mb]
Winds: from the WNW (300 degrees) at 9 MPH (8 knots; 4.2 m/s)
Visibility: 10 or more miles (16+ km)
Ceiling: at least 12,000 feet AGL
Clouds: sky clear below 12,000 feet AGL
Present Weather: no significant weather observed at this time
KAPF 211953Z 30008KT 10SM CLR 31/25 A2994 RMK AO2 LTG DSNT E SLP138 T03110250

Conditions at: KAPF observed 21 June 2018  18:53 UTC
Temperature: 32.8°C (91°F)
Dewpoint: 25.6°C (78°F) [RH = 66%]
Pressure (altimeter): 29.93 inches Hg (1013.6 mb)
[Sea-level pressure: 1013.5 mb]
Winds: from the W (280 degrees) at 14 MPH (12 knots; 6.2 m/s)
Visibility: 10 or more miles (16+ km)
Ceiling: at least 12,000 feet AGL
Clouds: few clouds at 3000 feet AGL
scattered clouds at 6000 feet AGL
Present Weather: no significant weather observed at this time
KAPF 211853Z 28012KT 10SM FEW030 SCT060 33/26 A2993 RMK AO2 LTG DSNT E SLP135 T03280256

Conditions at: KAPF observed 21 June 2018  17:53 UTC
Temperature: 32.8°C (91°F)
Dewpoint: 25.6°C (78°F) [RH = 66%]
Pressure (altimeter): 29.96 inches Hg (1014.6 mb)
[Sea-level pressure: 1014.4 mb]
Winds: from the WNW (290 degrees) at 13 MPH (11 knots; 5.7 m/s)
Visibility: 10 or more miles (16+ km)
Ceiling: at least 12,000 feet AGL
Clouds: few clouds at 2800 feet AGL
Present Weather: no significant weather observed at this time
KAPF 211753Z 29011KT 10SM FEW028 33/26 A2996 RMK AO2 LTG DSNT N-SE SLP144 T03280256 10328 20300 58003

Conditions at: KAPF observed 21 June 2018  16:53 UTC
Temperature: 32.2°C (90°F)
Dewpoint: 25.6°C (78°F) [RH = 68%]
Pressure (altimeter): 29.97 inches Hg (1015.0 mb)
[Sea-level pressure: 1014.7 mb]
Winds: from the W (280 degrees) at 13 MPH (11 knots; 5.7 m/s)
Visibility: 10 or more miles (16+ km)
Ceiling: at least 12,000 feet AGL
Clouds: few clouds at 3100 feet AGL
Present Weather: no significant weather observed at this time
KAPF 211653Z 28011KT 10SM FEW031 32/26 A2997 RMK AO2 LTG DSNT NE SLP147 T03220256